sensor_id;sensor_type;location;lat;lon;timestamp;P1;durP1;ratioP1;P2;durP2;ratioP2
63699;SDS011;49845;47.130;142.766;2022-09-09T00:03:33;36.33;;;4.40;;
63699;SDS011;49845;47.130;142.766;2022-09-09T00:07:17;14.60;;;3.80;;
63699;SDS011;49845;47.130;142.766;2022-09-09T00:10:48;11.90;;;3.33;;
63699;SDS011;49845;47.130;142.766;2022-09-09T00:13:43;16.70;;;3.20;;
63699;SDS011;49845;47.130;142.766;2022-09-09T00:20:58;10.33;;;2.97;;
63699;SDS011;49845;47.130;142.766;2022-09-09T00:24:35;9.63;;;3.27;;
63699;SDS011;49845;47.130;142.766;2022-09-09T00:31:38;24.30;;;4.47;;
63699;SDS011;49845;47.130;142.766;2022-09-09T00:35:49;11.63;;;3.30;;
63699;SDS011;49845;47.130;142.766;2022-09-09T00:39:46;11.47;;;3.03;;
63699;SDS011;49845;47.130;142.766;2022-09-09T00:43:12;18.70;;;4.10;;
63699;SDS011;49845;47.130;142.766;2022-09-09T00:49:58;25.00;;;3.70;;
63699;SDS011;49845;47.130;142.766;2022-09-09T00:53:35;24.33;;;3.90;;
63699;SDS011;49845;47.130;142.766;2022-09-09T00:57:10;15.33;;;3.83;;
63699;SDS011;49845;47.130;142.766;2022-09-09T01:01:04;9.93;;;3.60;;
63699;SDS011;49845;47.130;142.766;2022-09-09T01:05:17;8.60;;;3.23;;
63699;SDS011;49845;47.130;142.766;2022-09-09T01:08:26;10.50;;;3.00;;
63699;SDS011;49845;47.130;142.766;2022-09-09T01:11:55;19.07;;;3.67;;
63699;SDS011;49845;47.130;142.766;2022-09-09T01:15:16;26.38;;;3.53;;
63699;SDS011;49845;47.130;142.766;2022-09-09T01:29:24;6.87;;;2.00;;
63699;SDS011;49845;47.130;142.766;2022-09-09T01:36:23;11.77;;;2.57;;
63699;SDS011;49845;47.130;142.766;2022-09-09T01:43:09;7.00;;;2.50;;
63699;SDS011;49845;47.130;142.766;2022-09-09T01:53:56;16.33;;;2.50;;
63699;SDS011;49845;47.130;142.766;2022-09-09T01:57:20;6.57;;;1.60;;
63699;SDS011;49845;47.130;142.766;2022-09-09T02:02:09;4.17;;;1.90;;
63699;SDS011;49845;47.130;142.766;2022-09-09T02:04:03;10.97;;;2.40;;
63699;SDS011;49845;47.130;142.766;2022-09-09T02:10:09;8.70;;;1.80;;
63699;SDS011;49845;47.130;142.766;2022-09-09T02:12:59;8.70;;;1.90;;
63699;SDS011;49845;47.130;142.766;2022-09-09T02:15:43;3.53;;;1.90;;
63699;SDS011;49845;47.130;142.766;2022-09-09T02:18:26;9.10;;;2.03;;
63699;SDS011;49845;47.130;142.766;2022-09-09T02:21:33;2.35;;;1.40;;
63699;SDS011;49845;47.130;142.766;2022-09-09T02:24:19;8.80;;;1.80;;
63699;SDS011;49845;47.130;142.766;2022-09-09T02:27:06;7.63;;;1.50;;
63699;SDS011;49845;47.130;142.766;2022-09-09T02:30:11;5.80;;;1.60;;
63699;SDS011;49845;47.130;142.766;2022-09-09T02:36:38;5.80;;;1.77;;
63699;SDS011;49845;47.130;142.766;2022-09-09T02:39:31;3.67;;;1.50;;
63699;SDS011;49845;47.130;142.766;2022-09-09T02:42:18;6.37;;;1.70;;
63699;SDS011;49845;47.130;142.766;2022-09-09T02:45:04;3.10;;;1.47;;
63699;SDS011;49845;47.130;142.766;2022-09-09T02:47:51;7.00;;;1.93;;
63699;SDS011;49845;47.130;142.766;2022-09-09T02:50:54;17.87;;;3.20;;
63699;SDS011;49845;47.130;142.766;2022-09-09T02:53:49;5.05;;;1.60;;
63699;SDS011;49845;47.130;142.766;2022-09-09T02:56:46;2.87;;;1.27;;
63699;SDS011;49845;47.130;142.766;2022-09-09T02:59:39;7.18;;;1.75;;
63699;SDS011;49845;47.130;142.766;2022-09-09T03:02:22;6.47;;;1.37;;
63699;SDS011;49845;47.130;142.766;2022-09-09T03:05:02;7.60;;;1.53;;
63699;SDS011;49845;47.130;142.766;2022-09-09T03:07:57;7.43;;;1.87;;
63699;SDS011;49845;47.130;142.766;2022-09-09T03:10:35;9.87;;;1.60;;
63699;SDS011;49845;47.130;142.766;2022-09-09T03:13:18;7.70;;;1.70;;
63699;SDS011;49845;47.130;142.766;2022-09-09T03:16:08;2.77;;;1.73;;
63699;SDS011;49845;47.130;142.766;2022-09-09T03:18:55;8.40;;;2.03;;
63699;SDS011;49845;47.130;142.766;2022-09-09T03:21:41;8.17;;;1.80;;
63699;SDS011;49845;47.130;142.766;2022-09-09T03:24:15;7.53;;;1.57;;
63699;SDS011;49845;47.130;142.766;2022-09-09T03:27:34;3.40;;;1.50;;
63699;SDS011;49845;47.130;142.766;2022-09-09T03:33:35;3.90;;;1.47;;
63699;SDS011;49845;47.130;142.766;2022-09-09T03:36:19;2.23;;;1.10;;
63699;SDS011;49845;47.130;142.766;2022-09-09T03:39:47;7.47;;;1.77;;
63699;SDS011;49845;47.130;142.766;2022-09-09T03:45:41;5.20;;;1.50;;
63699;SDS011;49845;47.130;142.766;2022-09-09T03:48:39;3.90;;;1.43;;
63699;SDS011;49845;47.130;142.766;2022-09-09T03:52:08;3.27;;;1.63;;
63699;SDS011;49845;47.130;142.766;2022-09-09T03:55:01;5.27;;;1.67;;
63699;SDS011;49845;47.130;142.766;2022-09-09T03:57:43;12.40;;;2.43;;
63699;SDS011;49845;47.130;142.766;2022-09-09T04:00:26;4.67;;;1.50;;
63699;SDS011;49845;47.130;142.766;2022-09-09T04:03:16;5.20;;;1.87;;
63699;SDS011;49845;47.130;142.766;2022-09-09T04:06:09;10.73;;;2.20;;
63699;SDS011;49845;47.130;142.766;2022-09-09T04:11:52;4.30;;;1.70;;
63699;SDS011;49845;47.130;142.766;2022-09-09T04:14:34;7.33;;;1.97;;
63699;SDS011;49845;47.130;142.766;2022-09-09T04:17:25;47.63;;;5.30;;
63699;SDS011;49845;47.130;142.766;2022-09-09T04:20:00;95.50;;;6.83;;
63699;SDS011;49845;47.130;142.766;2022-09-09T04:23:03;1.83;;;1.33;;
63699;SDS011;49845;47.130;142.766;2022-09-09T04:25:47;4.90;;;1.20;;
63699;SDS011;49845;47.130;142.766;2022-09-09T04:28:28;13.00;;;1.80;;
63699;SDS011;49845;47.130;142.766;2022-09-09T04:31:09;3.37;;;1.07;;
63699;SDS011;49845;47.130;142.766;2022-09-09T04:33:56;71.97;;;7.13;;
63699;SDS011;49845;47.130;142.766;2022-09-09T04:36:43;22.37;;;3.27;;
63699;SDS011;49845;47.130;142.766;2022-09-09T04:39:28;5.37;;;1.40;;
63699;SDS011;49845;47.130;142.766;2022-09-09T04:42:18;9.87;;;2.33;;
63699;SDS011;49845;47.130;142.766;2022-09-09T04:45:10;18.48;;;2.30;;
63699;SDS011;49845;47.130;142.766;2022-09-09T04:47:59;7.93;;;1.60;;
63699;SDS011;49845;47.130;142.766;2022-09-09T04:54:02;12.70;;;2.40;;
63699;SDS011;49845;47.130;142.766;2022-09-09T04:57:01;13.23;;;1.50;;
63699;SDS011;49845;47.130;142.766;2022-09-09T04:59:55;7.43;;;1.10;;
63699;SDS011;49845;47.130;142.766;2022-09-09T05:02:39;71.17;;;6.60;;
63699;SDS011;49845;47.130;142.766;2022-09-09T05:05:36;5.30;;;1.30;;
63699;SDS011;49845;47.130;142.766;2022-09-09T05:08:15;5.43;;;0.90;;
63699;SDS011;49845;47.130;142.766;2022-09-09T05:10:53;5.40;;;1.25;;
63699;SDS011;49845;47.130;142.766;2022-09-09T05:16:36;15.10;;;2.33;;
63699;SDS011;49845;47.130;142.766;2022-09-09T05:19:16;21.80;;;2.10;;
63699;SDS011;49845;47.130;142.766;2022-09-09T05:21:51;9.10;;;2.63;;
63699;SDS011;49845;47.130;142.766;2022-09-09T05:24:34;11.67;;;3.27;;
63699;SDS011;49845;47.130;142.766;2022-09-09T05:27:27;4.03;;;0.90;;
63699;SDS011;49845;47.130;142.766;2022-09-09T05:30:15;26.87;;;3.63;;
63699;SDS011;49845;47.130;142.766;2022-09-09T05:33:05;3.03;;;1.03;;
63699;SDS011;49845;47.130;142.766;2022-09-09T05:35:43;26.92;;;2.10;;
63699;SDS011;49845;47.130;142.766;2022-09-09T05:38:23;11.00;;;1.77;;
63699;SDS011;49845;47.130;142.766;2022-09-09T05:41:03;24.30;;;2.67;;
63699;SDS011;49845;47.130;142.766;2022-09-09T05:43:40;2.77;;;1.07;;
63699;SDS011;49845;47.130;142.766;2022-09-09T05:46:23;12.07;;;1.33;;
63699;SDS011;49845;47.130;142.766;2022-09-09T05:49:04;54.23;;;5.53;;
63699;SDS011;49845;47.130;142.766;2022-09-09T05:51:41;3.70;;;1.47;;
63699;SDS011;49845;47.130;142.766;2022-09-09T05:54:22;3.83;;;1.33;;
63699;SDS011;49845;47.130;142.766;2022-09-09T05:57:08;8.25;;;1.63;;
63699;SDS011;49845;47.130;142.766;2022-09-09T06:00:15;2.37;;;0.90;;
63699;SDS011;49845;47.130;142.766;2022-09-09T06:03:02;29.50;;;3.27;;
63699;SDS011;49845;47.130;142.766;2022-09-09T06:05:41;10.70;;;1.47;;
63699;SDS011;49845;47.130;142.766;2022-09-09T06:08:21;23.43;;;3.30;;
63699;SDS011;49845;47.130;142.766;2022-09-09T06:11:11;6.33;;;0.80;;
63699;SDS011;49845;47.130;142.766;2022-09-09T06:13:52;17.27;;;1.33;;
63699;SDS011;49845;47.130;142.766;2022-09-09T06:16:31;1.40;;;0.93;;
63699;SDS011;49845;47.130;142.766;2022-09-09T06:19:19;6.63;;;0.90;;
63699;SDS011;49845;47.130;142.766;2022-09-09T06:21:58;4.67;;;0.80;;
63699;SDS011;49845;47.130;142.766;2022-09-09T06:24:41;5.07;;;1.00;;
63699;SDS011;49845;47.130;142.766;2022-09-09T06:27:27;6.50;;;1.03;;
63699;SDS011;49845;47.130;142.766;2022-09-09T06:30:23;8.73;;;1.13;;
63699;SDS011;49845;47.130;142.766;2022-09-09T06:33:03;7.67;;;0.93;;
63699;SDS011;49845;47.130;142.766;2022-09-09T06:36:02;4.47;;;0.90;;
63699;SDS011;49845;47.130;142.766;2022-09-09T06:41:52;6.00;;;0.80;;
63699;SDS011;49845;47.130;142.766;2022-09-09T06:44:33;12.93;;;1.00;;
63699;SDS011;49845;47.130;142.766;2022-09-09T06:47:15;7.47;;;0.70;;
63699;SDS011;49845;47.130;142.766;2022-09-09T06:50:02;9.27;;;0.90;;
63699;SDS011;49845;47.130;142.766;2022-09-09T06:52:48;17.63;;;1.43;;
63699;SDS011;49845;47.130;142.766;2022-09-09T06:55:38;6.77;;;0.80;;
63699;SDS011;49845;47.130;142.766;2022-09-09T06:58:25;8.43;;;1.50;;
63699;SDS011;49845;47.130;142.766;2022-09-09T07:01:43;9.27;;;0.90;;
63699;SDS011;49845;47.130;142.766;2022-09-09T07:04:24;6.43;;;1.20;;
63699;SDS011;49845;47.130;142.766;2022-09-09T07:07:06;4.47;;;1.17;;
63699;SDS011;49845;47.130;142.766;2022-09-09T07:10:04;17.93;;;1.30;;
63699;SDS011;49845;47.130;142.766;2022-09-09T07:12:58;7.60;;;0.93;;
63699;SDS011;49845;47.130;142.766;2022-09-09T07:15:49;5.10;;;1.13;;
63699;SDS011;49845;47.130;142.766;2022-09-09T07:18:36;23.53;;;1.60;;
63699;SDS011;49845;47.130;142.766;2022-09-09T07:21:14;4.10;;;0.83;;
63699;SDS011;49845;47.130;142.766;2022-09-09T07:23:53;7.75;;;0.88;;
63699;SDS011;49845;47.130;142.766;2022-09-09T07:26:46;9.87;;;0.90;;
63699;SDS011;49845;47.130;142.766;2022-09-09T07:29:36;10.40;;;1.00;;
63699;SDS011;49845;47.130;142.766;2022-09-09T07:32:32;13.13;;;0.87;;
63699;SDS011;49845;47.130;142.766;2022-09-09T07:35:09;32.70;;;3.40;;
63699;SDS011;49845;47.130;142.766;2022-09-09T07:37:48;28.50;;;2.25;;
63699;SDS011;49845;47.130;142.766;2022-09-09T07:40:26;8.93;;;1.00;;
63699;SDS011;49845;47.130;142.766;2022-09-09T07:43:05;4.60;;;0.70;;
63699;SDS011;49845;47.130;142.766;2022-09-09T07:45:59;15.30;;;1.63;;
63699;SDS011;49845;47.130;142.766;2022-09-09T07:48:45;22.00;;;1.60;;
63699;SDS011;49845;47.130;142.766;2022-09-09T07:51:41;18.80;;;1.27;;
63699;SDS011;49845;47.130;142.766;2022-09-09T07:54:59;18.17;;;1.10;;
63699;SDS011;49845;47.130;142.766;2022-09-09T07:57:35;6.40;;;0.93;;
63699;SDS011;49845;47.130;142.766;2022-09-09T08:00:36;23.27;;;1.20;;
63699;SDS011;49845;47.130;142.766;2022-09-09T08:03:27;21.27;;;1.40;;
63699;SDS011;49845;47.130;142.766;2022-09-09T08:06:04;9.63;;;1.10;;
63699;SDS011;49845;47.130;142.766;2022-09-09T08:08:49;12.37;;;1.30;;
63699;SDS011;49845;47.130;142.766;2022-09-09T08:11:30;19.97;;;1.50;;
63699;SDS011;49845;47.130;142.766;2022-09-09T08:14:11;28.97;;;8.73;;
63699;SDS011;49845;47.130;142.766;2022-09-09T08:17:06;23.67;;;2.10;;
63699;SDS011;49845;47.130;142.766;2022-09-09T08:19:47;18.80;;;2.43;;
63699;SDS011;49845;47.130;142.766;2022-09-09T08:22:31;13.83;;;1.30;;
63699;SDS011;49845;47.130;142.766;2022-09-09T08:25:30;15.10;;;1.20;;
63699;SDS011;49845;47.130;142.766;2022-09-09T08:28:23;19.67;;;1.70;;
63699;SDS011;49845;47.130;142.766;2022-09-09T08:31:10;13.03;;;1.37;;
63699;SDS011;49845;47.130;142.766;2022-09-09T08:33:52;4.67;;;1.00;;
63699;SDS011;49845;47.130;142.766;2022-09-09T08:36:36;6.97;;;1.00;;
63699;SDS011;49845;47.130;142.766;2022-09-09T08:39:22;8.00;;;1.10;;
63699;SDS011;49845;47.130;142.766;2022-09-09T08:45:25;10.47;;;1.97;;
63699;SDS011;49845;47.130;142.766;2022-09-09T08:48:17;23.53;;;4.50;;
63699;SDS011;49845;47.130;142.766;2022-09-09T08:54:33;28.37;;;13.20;;
63699;SDS011;49845;47.130;142.766;2022-09-09T08:57:29;29.95;;;10.57;;
63699;SDS011;49845;47.130;142.766;2022-09-09T09:00:10;134.17;;;10.67;;
63699;SDS011;49845;47.130;142.766;2022-09-09T09:02:57;47.53;;;10.20;;
63699;SDS011;49845;47.130;142.766;2022-09-09T09:05:55;30.10;;;3.50;;
63699;SDS011;49845;47.130;142.766;2022-09-09T09:08:43;14.10;;;4.83;;
63699;SDS011;49845;47.130;142.766;2022-09-09T09:11:50;8.73;;;3.47;;
63699;SDS011;49845;47.130;142.766;2022-09-09T09:14:39;10.23;;;5.70;;
63699;SDS011;49845;47.130;142.766;2022-09-09T09:17:25;5.67;;;2.60;;
63699;SDS011;49845;47.130;142.766;2022-09-09T09:20:18;6.03;;;1.30;;
63699;SDS011;49845;47.130;142.766;2022-09-09T09:23:05;6.17;;;1.50;;
63699;SDS011;49845;47.130;142.766;2022-09-09T09:26:05;5.10;;;1.95;;
63699;SDS011;49845;47.130;142.766;2022-09-09T09:29:00;3.50;;;2.27;;
63699;SDS011;49845;47.130;142.766;2022-09-09T09:31:44;2.22;;;1.30;;
63699;SDS011;49845;47.130;142.766;2022-09-09T09:34:33;2.47;;;1.50;;
63699;SDS011;49845;47.130;142.766;2022-09-09T09:37:12;7.38;;;2.08;;
63699;SDS011;49845;47.130;142.766;2022-09-09T09:40:12;5.40;;;2.80;;
63699;SDS011;49845;47.130;142.766;2022-09-09T09:43:16;5.93;;;2.33;;
63699;SDS011;49845;47.130;142.766;2022-09-09T09:46:21;12.18;;;3.75;;
63699;SDS011;49845;47.130;142.766;2022-09-09T09:49:23;16.85;;;7.13;;
63699;SDS011;49845;47.130;142.766;2022-09-09T09:52:25;3.53;;;1.75;;
63699;SDS011;49845;47.130;142.766;2022-09-09T09:55:16;9.23;;;2.80;;
63699;SDS011;49845;47.130;142.766;2022-09-09T10:00:58;38.47;;;4.97;;
63699;SDS011;49845;47.130;142.766;2022-09-09T10:03:40;42.15;;;4.95;;
63699;SDS011;49845;47.130;142.766;2022-09-09T10:06:42;28.67;;;5.40;;
63699;SDS011;49845;47.130;142.766;2022-09-09T10:09:23;19.05;;;4.43;;
63699;SDS011;49845;47.130;142.766;2022-09-09T10:12:19;33.00;;;4.53;;
63699;SDS011;49845;47.130;142.766;2022-09-09T10:15:11;32.47;;;4.55;;
63699;SDS011;49845;47.130;142.766;2022-09-09T10:18:18;31.50;;;3.75;;
63699;SDS011;49845;47.130;142.766;2022-09-09T10:21:09;25.77;;;3.33;;
63699;SDS011;49845;47.130;142.766;2022-09-09T10:28:22;68.05;;;4.85;;
63699;SDS011;49845;47.130;142.766;2022-09-09T10:31:17;35.30;;;8.13;;
63699;SDS011;49845;47.130;142.766;2022-09-09T10:34:06;21.23;;;11.00;;
63699;SDS011;49845;47.130;142.766;2022-09-09T10:37:30;14.75;;;6.15;;
63699;SDS011;49845;47.130;142.766;2022-09-09T10:40:43;9.73;;;2.70;;
63699;SDS011;49845;47.130;142.766;2022-09-09T10:46:58;51.08;;;3.05;;
63699;SDS011;49845;47.130;142.766;2022-09-09T10:53:36;9.27;;;1.15;;
63699;SDS011;49845;47.130;142.766;2022-09-09T10:56:32;7.68;;;1.45;;
63699;SDS011;49845;47.130;142.766;2022-09-09T10:59:18;3.38;;;1.00;;
63699;SDS011;49845;47.130;142.766;2022-09-09T11:02:05;6.38;;;1.63;;
63699;SDS011;49845;47.130;142.766;2022-09-09T11:05:14;3.55;;;1.20;;
63699;SDS011;49845;47.130;142.766;2022-09-09T11:08:06;2.58;;;1.08;;
63699;SDS011;49845;47.130;142.766;2022-09-09T11:11:03;7.13;;;0.90;;
63699;SDS011;49845;47.130;142.766;2022-09-09T11:13:49;4.90;;;1.90;;
63699;SDS011;49845;47.130;142.766;2022-09-09T11:16:35;8.27;;;3.45;;
63699;SDS011;49845;47.130;142.766;2022-09-09T11:19:40;16.02;;;3.47;;
63699;SDS011;49845;47.130;142.766;2022-09-09T11:22:25;9.63;;;3.90;;
63699;SDS011;49845;47.130;142.766;2022-09-09T11:25:14;8.23;;;3.63;;
63699;SDS011;49845;47.130;142.766;2022-09-09T11:28:19;10.80;;;5.15;;
63699;SDS011;49845;47.130;142.766;2022-09-09T11:31:29;10.63;;;3.33;;
63699;SDS011;49845;47.130;142.766;2022-09-09T11:34:37;14.02;;;3.80;;
63699;SDS011;49845;47.130;142.766;2022-09-09T11:37:42;6.43;;;2.00;;
63699;SDS011;49845;47.130;142.766;2022-09-09T11:40:32;4.45;;;1.88;;
63699;SDS011;49845;47.130;142.766;2022-09-09T11:43:32;7.53;;;1.83;;
63699;SDS011;49845;47.130;142.766;2022-09-09T11:46:22;3.13;;;1.63;;
63699;SDS011;49845;47.130;142.766;2022-09-09T11:49:23;5.85;;;2.80;;
63699;SDS011;49845;47.130;142.766;2022-09-09T11:52:24;4.20;;;2.30;;
63699;SDS011;49845;47.130;142.766;2022-09-09T11:55:24;4.80;;;2.40;;
63699;SDS011;49845;47.130;142.766;2022-09-09T11:58:15;53.92;;;4.82;;
63699;SDS011;49845;47.130;142.766;2022-09-09T12:01:15;60.25;;;4.55;;
63699;SDS011;49845;47.130;142.766;2022-09-09T12:04:11;33.58;;;3.33;;
63699;SDS011;49845;47.130;142.766;2022-09-09T12:10:34;5.43;;;1.13;;
63699;SDS011;49845;47.130;142.766;2022-09-09T12:13:20;6.47;;;1.38;;
63699;SDS011;49845;47.130;142.766;2022-09-09T12:16:06;4.68;;;0.93;;
63699;SDS011;49845;47.130;142.766;2022-09-09T12:19:14;3.42;;;0.98;;
63699;SDS011;49845;47.130;142.766;2022-09-09T12:21:58;34.28;;;2.45;;
63699;SDS011;49845;47.130;142.766;2022-09-09T12:24:51;10.32;;;1.23;;
63699;SDS011;49845;47.130;142.766;2022-09-09T12:27:51;54.25;;;3.30;;
63699;SDS011;49845;47.130;142.766;2022-09-09T12:30:55;54.45;;;4.43;;
63699;SDS011;49845;47.130;142.766;2022-09-09T12:33:54;53.88;;;3.88;;
63699;SDS011;49845;47.130;142.766;2022-09-09T12:36:49;42.75;;;3.97;;
63699;SDS011;49845;47.130;142.766;2022-09-09T12:39:32;7.43;;;1.15;;
63699;SDS011;49845;47.130;142.766;2022-09-09T12:42:21;5.43;;;1.10;;
63699;SDS011;49845;47.130;142.766;2022-09-09T12:45:15;7.68;;;1.38;;
63699;SDS011;49845;47.130;142.766;2022-09-09T12:51:17;5.35;;;1.20;;
63699;SDS011;49845;47.130;142.766;2022-09-09T12:54:14;8.32;;;1.33;;
63699;SDS011;49845;47.130;142.766;2022-09-09T12:56:49;7.28;;;1.50;;
63699;SDS011;49845;47.130;142.766;2022-09-09T12:59:37;23.50;;;2.10;;
63699;SDS011;49845;47.130;142.766;2022-09-09T13:02:23;8.23;;;1.50;;
63699;SDS011;49845;47.130;142.766;2022-09-09T13:05:12;7.97;;;1.70;;
63699;SDS011;49845;47.130;142.766;2022-09-09T13:10:53;4.45;;;1.00;;
63699;SDS011;49845;47.130;142.766;2022-09-09T13:13:49;16.70;;;1.50;;
63699;SDS011;49845;47.130;142.766;2022-09-09T13:16:41;21.75;;;1.40;;
63699;SDS011;49845;47.130;142.766;2022-09-09T13:19:17;2.28;;;1.63;;
63699;SDS011;49845;47.130;142.766;2022-09-09T13:22:19;5.70;;;1.50;;
63699;SDS011;49845;47.130;142.766;2022-09-09T13:25:17;21.85;;;2.22;;
63699;SDS011;49845;47.130;142.766;2022-09-09T13:28:02;27.88;;;2.50;;
63699;SDS011;49845;47.130;142.766;2022-09-09T13:30:39;46.08;;;3.13;;
63699;SDS011;49845;47.130;142.766;2022-09-09T13:33:21;64.30;;;3.40;;
63699;SDS011;49845;47.130;142.766;2022-09-09T13:36:03;40.88;;;3.03;;
63699;SDS011;49845;47.130;142.766;2022-09-09T13:38:53;12.18;;;1.60;;
63699;SDS011;49845;47.130;142.766;2022-09-09T13:44:44;17.92;;;2.17;;
63699;SDS011;49845;47.130;142.766;2022-09-09T13:47:28;6.40;;;1.08;;
63699;SDS011;49845;47.130;142.766;2022-09-09T13:50:20;2.95;;;1.23;;
63699;SDS011;49845;47.130;142.766;2022-09-09T13:53:17;2.08;;;1.20;;
63699;SDS011;49845;47.130;142.766;2022-09-09T13:55:52;10.30;;;1.63;;
63699;SDS011;49845;47.130;142.766;2022-09-09T13:58:38;2.08;;;0.93;;
63699;SDS011;49845;47.130;142.766;2022-09-09T14:01:20;10.30;;;1.30;;
63699;SDS011;49845;47.130;142.766;2022-09-09T14:04:20;6.45;;;1.40;;
63699;SDS011;49845;47.130;142.766;2022-09-09T14:07:08;2.10;;;1.33;;
63699;SDS011;49845;47.130;142.766;2022-09-09T14:10:01;5.97;;;1.30;;
63699;SDS011;49845;47.130;142.766;2022-09-09T14:12:52;2.88;;;1.20;;
63699;SDS011;49845;47.130;142.766;2022-09-09T14:18:33;4.20;;;1.40;;
63699;SDS011;49845;47.130;142.766;2022-09-09T14:21:17;4.60;;;1.40;;
63699;SDS011;49845;47.130;142.766;2022-09-09T14:24:13;6.60;;;1.48;;
63699;SDS011;49845;47.130;142.766;2022-09-09T14:26:48;6.25;;;1.45;;
63699;SDS011;49845;47.130;142.766;2022-09-09T14:29:28;2.30;;;1.30;;
63699;SDS011;49845;47.130;142.766;2022-09-09T14:32:21;3.35;;;1.20;;
63699;SDS011;49845;47.130;142.766;2022-09-09T14:35:08;7.15;;;1.70;;
63699;SDS011;49845;47.130;142.766;2022-09-09T14:37:48;4.70;;;1.33;;
63699;SDS011;49845;47.130;142.766;2022-09-09T14:40:28;5.88;;;1.38;;
63699;SDS011;49845;47.130;142.766;2022-09-09T14:43:05;2.42;;;1.55;;
63699;SDS011;49845;47.130;142.766;2022-09-09T14:45:39;2.90;;;1.10;;
63699;SDS011;49845;47.130;142.766;2022-09-09T14:48:21;3.90;;;1.42;;
63699;SDS011;49845;47.130;142.766;2022-09-09T14:51:05;2.15;;;1.20;;
63699;SDS011;49845;47.130;142.766;2022-09-09T14:53:51;5.28;;;1.80;;
63699;SDS011;49845;47.130;142.766;2022-09-09T14:56:40;4.30;;;1.17;;
63699;SDS011;49845;47.130;142.766;2022-09-09T14:59:21;3.30;;;1.10;;
63699;SDS011;49845;47.130;142.766;2022-09-09T15:02:00;2.00;;;1.10;;
63699;SDS011;49845;47.130;142.766;2022-09-09T15:04:43;2.28;;;1.20;;
63699;SDS011;49845;47.130;142.766;2022-09-09T15:07:34;5.75;;;1.45;;
63699;SDS011;49845;47.130;142.766;2022-09-09T15:10:25;1.38;;;1.25;;
63699;SDS011;49845;47.130;142.766;2022-09-09T15:13:02;2.70;;;1.17;;
63699;SDS011;49845;47.130;142.766;2022-09-09T15:15:54;1.17;;;1.08;;
63699;SDS011;49845;47.130;142.766;2022-09-09T15:18:49;3.00;;;1.33;;
63699;SDS011;49845;47.130;142.766;2022-09-09T15:24:32;2.10;;;1.13;;
63699;SDS011;49845;47.130;142.766;2022-09-09T15:27:23;2.85;;;1.25;;
63699;SDS011;49845;47.130;142.766;2022-09-09T15:30:11;5.28;;;1.17;;
63699;SDS011;49845;47.130;142.766;2022-09-09T15:32:51;2.45;;;1.25;;
63699;SDS011;49845;47.130;142.766;2022-09-09T15:35:27;2.85;;;1.02;;
63699;SDS011;49845;47.130;142.766;2022-09-09T15:38:17;12.70;;;1.83;;
63699;SDS011;49845;47.130;142.766;2022-09-09T15:41:01;9.93;;;1.60;;
63699;SDS011;49845;47.130;142.766;2022-09-09T15:43:44;7.88;;;1.90;;
63699;SDS011;49845;47.130;142.766;2022-09-09T15:47:10;6.60;;;1.30;;
63699;SDS011;49845;47.130;142.766;2022-09-09T15:50:09;2.05;;;1.10;;
63699;SDS011;49845;47.130;142.766;2022-09-09T15:52:59;2.80;;;1.02;;
63699;SDS011;49845;47.130;142.766;2022-09-09T15:55:50;2.75;;;1.30;;
63699;SDS011;49845;47.130;142.766;2022-09-09T15:58:33;1.40;;;1.10;;
63699;SDS011;49845;47.130;142.766;2022-09-09T16:01:11;4.32;;;1.30;;
63699;SDS011;49845;47.130;142.766;2022-09-09T16:04:05;4.13;;;1.67;;
63699;SDS011;49845;47.130;142.766;2022-09-09T16:06:56;6.28;;;1.20;;
63699;SDS011;49845;47.130;142.766;2022-09-09T16:09:37;3.65;;;1.63;;
63699;SDS011;49845;47.130;142.766;2022-09-09T16:12:26;1.75;;;1.10;;
63699;SDS011;49845;47.130;142.766;2022-09-09T16:15:12;2.67;;;1.10;;
63699;SDS011;49845;47.130;142.766;2022-09-09T16:18:04;4.65;;;1.25;;
63699;SDS011;49845;47.130;142.766;2022-09-09T16:20:54;2.97;;;0.98;;
63699;SDS011;49845;47.130;142.766;2022-09-09T16:23:41;1.10;;;1.00;;
63699;SDS011;49845;47.130;142.766;2022-09-09T16:26:24;5.63;;;1.60;;
63699;SDS011;49845;47.130;142.766;2022-09-09T16:29:26;1.58;;;1.17;;
63699;SDS011;49845;47.130;142.766;2022-09-09T16:32:11;2.67;;;1.10;;
63699;SDS011;49845;47.130;142.766;2022-09-09T16:34:52;1.90;;;1.05;;
63699;SDS011;49845;47.130;142.766;2022-09-09T16:37:52;6.93;;;1.15;;
63699;SDS011;49845;47.130;142.766;2022-09-09T16:40:33;2.08;;;1.13;;
63699;SDS011;49845;47.130;142.766;2022-09-09T16:43:20;2.97;;;1.20;;
63699;SDS011;49845;47.130;142.766;2022-09-09T16:46:10;1.92;;;1.30;;
63699;SDS011;49845;47.130;142.766;2022-09-09T16:48:52;3.45;;;1.08;;
63699;SDS011;49845;47.130;142.766;2022-09-09T16:51:50;1.92;;;1.30;;
63699;SDS011;49845;47.130;142.766;2022-09-09T16:54:30;1.30;;;1.20;;
63699;SDS011;49845;47.130;142.766;2022-09-09T16:57:19;3.22;;;1.23;;
63699;SDS011;49845;47.130;142.766;2022-09-09T17:00:22;1.80;;;1.15;;
63699;SDS011;49845;47.130;142.766;2022-09-09T17:06:02;3.13;;;1.15;;
63699;SDS011;49845;47.130;142.766;2022-09-09T17:08:55;3.30;;;1.33;;
63699;SDS011;49845;47.130;142.766;2022-09-09T17:11:44;4.43;;;1.13;;
63699;SDS011;49845;47.130;142.766;2022-09-09T17:14:38;1.08;;;0.90;;
63699;SDS011;49845;47.130;142.766;2022-09-09T17:17:17;3.03;;;1.60;;
63699;SDS011;49845;47.130;142.766;2022-09-09T17:20:05;4.65;;;1.10;;
63699;SDS011;49845;47.130;142.766;2022-09-09T17:22:51;1.38;;;0.90;;
63699;SDS011;49845;47.130;142.766;2022-09-09T17:25:35;1.13;;;1.00;;
63699;SDS011;49845;47.130;142.766;2022-09-09T17:28:19;2.35;;;0.93;;
63699;SDS011;49845;47.130;142.766;2022-09-09T17:31:09;3.15;;;1.02;;
63699;SDS011;49845;47.130;142.766;2022-09-09T17:33:49;1.20;;;0.98;;
63699;SDS011;49845;47.130;142.766;2022-09-09T17:36:47;3.10;;;0.80;;
63699;SDS011;49845;47.130;142.766;2022-09-09T17:39:43;1.08;;;0.93;;
63699;SDS011;49845;47.130;142.766;2022-09-09T17:42:20;3.00;;;1.05;;
63699;SDS011;49845;47.130;142.766;2022-09-09T17:44:59;2.10;;;1.23;;
63699;SDS011;49845;47.130;142.766;2022-09-09T17:47:40;6.47;;;1.05;;
63699;SDS011;49845;47.130;142.766;2022-09-09T17:50:23;4.00;;;0.98;;
63699;SDS011;49845;47.130;142.766;2022-09-09T17:53:12;2.45;;;1.10;;
63699;SDS011;49845;47.130;142.766;2022-09-09T17:55:52;15.70;;;1.90;;
63699;SDS011;49845;47.130;142.766;2022-09-09T17:59:00;3.85;;;0.85;;
63699;SDS011;49845;47.130;142.766;2022-09-09T18:01:40;2.15;;;1.00;;
63699;SDS011;49845;47.130;142.766;2022-09-09T18:04:17;3.70;;;1.23;;
63699;SDS011;49845;47.130;142.766;2022-09-09T18:06:56;6.20;;;1.30;;
63699;SDS011;49845;47.130;142.766;2022-09-09T18:12:43;6.32;;;1.45;;
63699;SDS011;49845;47.130;142.766;2022-09-09T18:15:21;3.95;;;1.17;;
63699;SDS011;49845;47.130;142.766;2022-09-09T18:18:15;8.00;;;0.93;;
63699;SDS011;49845;47.130;142.766;2022-09-09T18:20:57;55.47;;;3.40;;
63699;SDS011;49845;47.130;142.766;2022-09-09T18:23:47;51.58;;;3.33;;
63699;SDS011;49845;47.130;142.766;2022-09-09T18:27:05;28.13;;;3.10;;
63699;SDS011;49845;47.130;142.766;2022-09-09T18:30:06;165.57;;;8.32;;